Terminal Aerodrome Forecast
Issued by NWS

Current Version | Previous Version | Graphics & Text | Print | Product List | Glossary On
Versions: 1 2 3 4 5 6 7 8 9 10 11 12 13 14 15 16 17 18 19 20 21 22 23 24 25 26 27 28 29 30 31 32 33 34 35 36 37 38 39
000
FTUS41 KRNK 261137
TAFLWB
TAF
KLWB 261137Z 2612/2712 02007KT 1SM BR OVC001
     FM261400 VRB03KT 4SM -RASN OVC005
     FM261900 30005KT 2SM -RASN BR OVC009
     FM262200 31010G19KT 2SM -SN BR OVC009
     FM270300 31010G18KT 4SM -SN BR OVC012
     FM270800 29005KT P6SM OVC015=

USA.gov is the U.S. government's official web portal to all federal, state and local government web resources and services.